ADDS METAR Data INFO
IDs: Format: Raw Decoded Include TAF

Data at: 1045 UTC 19 Oct 2017

KFWA 190954Z 22008KT 10SM FEW240 09/07 A3012 RMK AO2 SLP199 T00940067
KFWA 190854Z 22007KT 10SM FEW250 09/07 A3012 RMK AO2 SLP198 T00940067 58006
KFWA 190754Z 22007KT 10SM FEW220 09/06 A3013 RMK AO2 SLP202 T00890061
KFWA 190654Z 22006KT 10SM FEW240 08/05 A3013 RMK AO2 SLP203 T00780050
KFWA 190554Z 21004KT 10SM FEW260 09/06 A3013 RMK AO2 SLP204 T00890056 10139 20083 58004
KFWA 190454Z 19007KT 10SM FEW280 09/05 A3014 RMK AO2 SLP207 T00890050 402110039
KFWA 190354Z 19007KT 10SM CLR 10/06 A3015 RMK AO2 SLP209 T01000056
KFWA 190254Z 20009KT 10SM CLR 12/06 A3015 RMK AO2 SLP209 T01170056 53003
KFWA 190154Z 19008KT 10SM CLR 12/05 A3013 RMK AO2 SLP204 T01220050
KFWA 190054Z 18008KT 10SM CLR 12/04 A3014 RMK AO2 SLP207 T01170044
KFWA 182354Z 19008KT 10SM CLR 14/04 A3014 RMK AO2 SLP208 T01390039 10211 20139 56006
KFWA 182254Z 20008KT 10SM CLR 16/04 A3014 RMK AO2 SLP209 T01610039
KFWA 182154Z 21013KT 10SM FEW250 19/04 A3014 RMK AO2 SLP207 T01940039
KFWA 182054Z 21012KT 10SM FEW250 21/03 A3016 RMK AO2 SLP212 T02060033 56021
KFWA 181954Z 20012G19KT 10SM FEW250 21/04 A3017 RMK AO2 SLP216 T02060044
KFWA 181854Z 20012G18KT 10SM FEW250 19/05 A3019 RMK AO2 SLP225 T01940050
KFWA 181754Z 19013G18KT 10SM FEW250 19/05 A3022 RMK AO2 SLP233 T01940050 10194 20044 58019
KFWA 181654Z 21012KT 10SM FEW250 18/06 A3025 RMK AO2 SLP244 T01830056
KFWA 181554Z 20012KT 10SM FEW250 17/06 A3027 RMK AO2 SLP252 T01720061
KFWA 181454Z 20011KT 10SM FEW250 15/07 A3028 RMK AO2 SLP253 T01500067 50003
KFWA 181354Z 20007KT 10SM FEW100 12/07 A3028 RMK AO2 SLP256 T01170067
KFWA 181254Z 19005KT 10SM CLR 08/05 A3027 RMK AO2 SLP255 T00780050
KFWA 181154Z 00000KT 10SM CLR 05/02 A3027 RMK AO2 SLP253 T00500022 10078 20039 51006
KFWA 181054Z 20005KT 10SM CLR 04/02 A3027 RMK AO2 SLP252 T00440022
KFWA 180954Z 19004KT 10SM CLR 06/03 A3026 RMK AO2 SLP247 T00610028
KFWA 180854Z 20003KT 10SM CLR 06/03 A3025 RMK AO2 SLP244 T00560028 53002
KFWA 180754Z 19005KT 10SM CLR 06/03 A3024 RMK AO2 SLP241 T00610033
KFWA 180654Z 19005KT 10SM CLR 06/03 A3024 RMK AO2 SLP240 T00610028
KFWA 180554Z 19003KT 10SM CLR 08/03 A3025 RMK AO2 SLP242 T00780033 10117 20061 54000
KFWA 180454Z 19004KT 10SM FEW250 08/04 A3024 RMK AO2 SLP242 T00830039 402000044
KFWA 180354Z 19004KT 10SM CLR 09/04 A3025 RMK AO2 SLP243 T00890039
KFWA 180254Z 21003KT 10SM CLR 11/04 A3025 RMK AO2 SLP243 T01110039 53013
KFWA 180154Z 21006KT 10SM CLR 09/04 A3022 RMK AO2 SLP237 T00940044
KFWA 180054Z 21008KT 10SM CLR 10/04 A3021 RMK AO2 SLP234 T01000044
KFWA 172354Z 21008KT 10SM CLR 11/04 A3021 RMK AO2 SLP232 T01110044 10200 20111 55002
KFWA 172254Z 22007KT 10SM FEW250 15/04 A3020 RMK AO2 SLP230 T01500039